Time;durP1;ratioP1;P1;durP2;ratioP2;P2;SDS_P1;SDS_P2;PMS_P1;PMS_P2;Temp;Humidity;BMP_temperature;BMP_pressure;BME280_temperature;BME280_humidity;BME280_pressure;Samples;Min_cycle;Max_cycle;Signal;HPM_P1;HPM_P2
2023/10/09 00:03:06;;;;;;;;;;;;;;;27.35;30.71;101457.41;5078110;28;1023;-37
2023/10/09 00:05:45;;;;;;;;;;;;;;;27.42;30.38;101454.88;5078529;28;1046;-39
2023/10/09 00:08:21;;;;;;;;;;;;;;;27.58;30.47;101451.31;5077896;28;1054;-37
2023/10/09 00:10:53;;;;;;;;;;;;;;;27.45;30.69;101443.72;5065949;28;1967;-37
2023/10/09 00:13:19;;;;;;;;;;;;;;;27.55;30.33;101438.16;5078191;28;1185;-37
2023/10/09 00:15:51;;;;;;;;;;;;;;;27.50;30.84;101441.38;5078637;28;1106;-37
2023/10/09 00:18:22;;;;;;;;;;;;;;;27.46;30.52;101440.84;5077662;28;1022;-35
2023/10/09 00:20:53;;;;;;;;;;;;;;;27.60;30.53;101435.78;5077544;28;1021;-36
2023/10/09 00:23:19;;;;;;;;;;;;;;;27.59;30.65;101440.34;5078079;28;1254;-37
2023/10/09 00:26:16;;;;;;;;;;;;;;;27.44;30.72;101439.34;5077759;28;1070;-36
2023/10/09 00:28:47;;;;;;;;;;;;;;;27.49;30.92;101440.50;5078876;28;1279;-35
2023/10/09 00:31:15;;;;;;;;;;;;;;;27.48;30.77;101432.56;5106119;28;1972;-36
2023/10/09 00:33:44;;;;;;;;;;;;;;;27.39;30.75;101442.56;5077394;28;832;-37
2023/10/09 00:36:09;;;;;;;;;;;;;;;27.59;30.53;101434.94;5077625;28;1050;-39
2023/10/09 00:38:46;;;;;;;;;;;;;;;27.57;30.86;101425.31;5076636;28;1258;-34
2023/10/09 00:41:19;;;;;;;;;;;;;;;27.49;30.91;101431.56;5077519;28;1170;-36
2023/10/09 00:43:44;;;;;;;;;;;;;;;27.41;31.00;101428.88;5077690;28;1214;-38
2023/10/09 00:48:47;;;;;;;;;;;;;;;27.38;31.18;101416.53;5077213;28;1174;-34
2023/10/09 00:51:16;;;;;;;;;;;;;;;27.46;30.96;101407.59;5063150;28;1979;-37
2023/10/09 00:54:07;;;;;;;;;;;;;;;27.43;31.14;101413.31;5077286;28;1007;-38
2023/10/09 00:56:39;;;;;;;;;;;;;;;27.43;31.10;101416.88;5077006;28;1123;-37
2023/10/09 00:59:09;;;;;;;;;;;;;;;27.49;31.16;101428.88;5077363;28;1242;-35
2023/10/09 01:01:35;;;;;;;;;;;;;;;27.50;31.09;101439.50;5077768;28;1043;-35
2023/10/09 01:04:12;;;;;;;;;;;;;;;27.54;31.02;101440.03;5076690;28;1139;-38
2023/10/09 01:06:43;;;;;;;;;;;;;;;27.55;30.74;101428.19;5109981;28;1226;-39
2023/10/09 01:09:10;;;;;;;;;;;;;;;27.53;31.13;101421.28;5076950;28;864;-34
2023/10/09 01:11:47;;;;;;;;;;;;;;;27.58;30.92;101418.88;5078303;28;1901;-36
2023/10/09 01:14:12;;;;;;;;;;;;;;;27.43;31.16;101435.78;5119982;27;1042;-38
2023/10/09 01:16:40;;;;;;;;;;;;;;;27.45;31.09;101436.47;5076720;28;1066;-36
2023/10/09 01:19:12;;;;;;;;;;;;;;;27.55;31.07;101436.31;5086156;28;1116;-36
2023/10/09 01:21:39;;;;;;;;;;;;;;;27.57;31.07;101430.72;5078824;28;1114;-36
2023/10/09 01:24:08;;;;;;;;;;;;;;;27.51;31.17;101434.94;5077173;28;999;-37
2023/10/09 01:26:44;;;;;;;;;;;;;;;27.62;30.96;101444.56;5076726;28;1019;-39
2023/10/09 01:29:14;;;;;;;;;;;;;;;27.60;30.97;101457.41;5077006;28;1018;-35
2023/10/09 01:31:55;;;;;;;;;;;;;;;27.55;30.93;101467.88;5075659;28;1973;-37
2023/10/09 01:34:24;;;;;;;;;;;;;;;27.54;31.10;101469.75;5072207;28;1005;-39
2023/10/09 01:36:59;;;;;;;;;;;;;;;27.57;30.93;101471.25;5075343;28;1283;-40
2023/10/09 01:39:30;;;;;;;;;;;;;;;27.60;30.85;101476.31;5075348;28;1067;-34
2023/10/09 01:41:59;;;;;;;;;;;;;;;27.67;30.91;101480.06;5076801;28;1046;-36
2023/10/09 01:44:30;;;;;;;;;;;;;;;27.60;31.06;101497.94;5076238;28;1111;-40
2023/10/09 01:46:57;;;;;;;;;;;;;;;27.62;30.97;101507.59;5109046;28;1018;-38
2023/10/09 01:49:29;;;;;;;;;;;;;;;27.55;31.33;101511.97;5076621;28;1137;-34
2023/10/09 01:51:56;;;;;;;;;;;;;;;27.50;31.48;101515.19;5076798;28;1889;-37
2023/10/09 01:54:36;;;;;;;;;;;;;;;27.47;31.69;101517.38;5062648;28;964;-38
2023/10/09 01:57:05;;;;;;;;;;;;;;;27.41;31.38;101510.75;5074798;28;1106;-34
2023/10/09 01:59:38;;;;;;;;;;;;;;;27.51;31.54;101507.91;5075320;28;1116;-34
2023/10/09 02:02:25;;;;;;;;;;;;;;;27.50;31.43;101509.78;5075094;28;1195;-39
2023/10/09 02:04:54;;;;;;;;;;;;;;;27.50;31.29;101519.72;5076639;28;1101;-33
2023/10/09 02:07:28;;;;;;;;;;;;;;;27.48;31.40;101521.75;5076259;28;1193;-38
2023/10/09 02:09:57;;;;;;;;;;;;;;;27.13;31.97;101517.28;5074799;28;1147;-38
2023/10/09 02:12:23;;;;;;;;;;;;;;;27.49;31.24;101518.03;5076364;28;1898;-38
2023/10/09 02:14:49;;;;;;;;;;;;;;;27.40;31.65;101525.28;5074984;28;1254;-39
2023/10/09 02:17:18;;;;;;;;;;;;;;;27.35;31.72;101525.78;5076241;28;1042;-36
2023/10/09 02:19:48;;;;;;;;;;;;;;;27.32;31.81;101538.78;5076441;28;1039;-34
2023/10/09 02:22:14;;;;;;;;;;;;;;;27.47;31.48;101552.50;5076114;28;889;-35
2023/10/09 02:29:59;;;;;;;;;;;;;;;27.38;31.78;101562.41;5076590;28;1185;-36
2023/10/09 02:32:25;;;;;;;;;;;;;;;27.41;31.70;101566.66;5078345;28;1968;-37
2023/10/09 02:34:53;;;;;;;;;;;;;;;27.35;31.88;101558.22;5112446;28;1065;-37
2023/10/09 02:37:23;;;;;;;;;;;;;;;27.25;31.87;101563.75;5080017;28;1084;-36
2023/10/09 02:39:52;;;;;;;;;;;;;;;27.18;31.67;101564.56;5112008;28;1166;-39
2023/10/09 02:42:23;;;;;;;;;;;;;;;27.37;31.63;101569.72;5078628;28;1016;-36
2023/10/09 02:44:51;;;;;;;;;;;;;;;27.21;31.79;101581.28;5079159;28;1189;-35
2023/10/09 02:47:29;;;;;;;;;;;;;;;27.20;31.85;101585.00;5079812;28;1011;-37
2023/10/09 02:50:00;;;;;;;;;;;;;;;27.17;32.08;101590.75;5079610;28;1106;-39
2023/10/09 02:52:32;;;;;;;;;;;;;;;27.27;31.86;101590.59;5078219;28;1967;-39
2023/10/09 02:55:00;;;;;;;;;;;;;;;27.16;32.32;101574.69;5079282;28;1089;-37
2023/10/09 02:57:36;;;;;;;;;;;;;;;27.35;31.65;101574.41;5079043;28;1082;-38
2023/10/09 03:00:03;;;;;;;;;;;;;;;27.25;31.95;101561.06;5079713;28;1094;-39
2023/10/09 03:02:31;;;;;;;;;;;;;;;27.06;32.26;101569.44;5079434;28;1114;-37
2023/10/09 03:04:58;;;;;;;;;;;;;;;27.29;32.06;101590.44;5078118;28;1157;-36
2023/10/09 03:07:24;;;;;;;;;;;;;;;27.15;32.05;101603.56;5079178;28;1121;-36
2023/10/09 03:09:49;;;;;;;;;;;;;;;27.33;31.98;101603.44;5079054;28;1055;-34
2023/10/09 03:12:18;;;;;;;;;;;;;;;27.53;31.78;101602.34;5079318;28;1902;-37
2023/10/09 03:14:44;;;;;;;;;;;;;;;26.91;30.21;101591.59;5090290;28;1134;-40
2023/10/09 03:17:11;;;;;;;;;;;;;;;26.69;26.59;101585.75;5077818;28;1047;-38
2023/10/09 03:19:39;;;;;;;;;;;;;;;25.88;26.46;101586.63;5078922;28;1042;-35
2023/10/09 03:22:09;;;;;;;;;;;;;;;25.81;27.36;101593.63;5078879;28;951;-35
2023/10/09 03:24:41;;;;;;;;;;;;;;;25.71;26.07;101606.34;5079297;28;1261;-37
2023/10/09 03:27:07;;;;;;;;;;;;;;;25.56;27.43;101620.28;5077757;28;1442;-34
2023/10/09 03:29:33;;;;;;;;;;;;;;;25.27;25.84;101621.31;5079054;28;1049;-33
2023/10/09 03:32:00;;;;;;;;;;;;;;;25.22;25.46;101611.00;5078592;28;1968;-35
2023/10/09 03:34:25;;;;;;;;;;;;;;;25.34;25.22;101621.56;5078679;28;1058;-36
2023/10/09 03:37:21;;;;;;;;;;;;;;;24.96;27.02;101618.91;5078996;28;1054;-32
2023/10/09 03:39:42;;;;;;;;;;;;;;;25.15;25.80;101616.13;5080195;28;1515;-36
2023/10/09 03:42:11;;;;;;;;;;;;;;;25.21;26.43;101624.63;5078042;28;1192;-37
2023/10/09 03:44:44;;;;;;;;;;;;;;;25.21;25.98;101638.91;5078160;28;1064;-33
2023/10/09 03:47:10;;;;;;;;;;;;;;;25.24;26.17;101654.75;5078211;28;951;-33
2023/10/09 03:49:39;;;;;;;;;;;;;;;25.16;26.38;101660.03;5078213;28;1107;-32
2023/10/09 03:52:06;;;;;;;;;;;;;;;24.74;26.66;101654.03;5078279;28;1902;-32
2023/10/09 03:54:32;;;;;;;;;;;;;;;25.14;29.01;101657.50;5078872;28;1089;-32
2023/10/09 03:56:58;;;;;;;;;;;;;;;25.23;28.83;101657.59;5078587;28;1133;-34
2023/10/09 03:59:30;;;;;;;;;;;;;;;25.63;26.53;101655.59;5077782;28;954;-41
2023/10/09 04:01:57;;;;;;;;;;;;;;;23.92;25.30;101625.59;5078654;28;1093;-42
2023/10/09 04:04:24;;;;;;;;;;;;;;;23.34;25.83;101648.59;5078461;28;1138;-41
2023/10/09 04:06:51;;;;;;;;;;;;;;;22.62;25.85;101652.06;5075778;28;1128;-44
2023/10/09 04:14:33;;;;;;;;;;;;;;;22.62;23.59;101668.97;5077872;28;1393;-38
2023/10/09 04:17:06;;;;;;;;;;;;;;;22.63;24.27;101673.38;5077625;28;1067;-40
2023/10/09 04:19:38;;;;;;;;;;;;;;;23.94;22.86;101681.91;5070430;28;971;-42
2023/10/09 04:22:07;;;;;;;;;;;;;;;24.85;23.03;101681.78;5077549;28;1024;-40
2023/10/09 04:24:41;;;;;;;;;;;;;;;25.24;22.89;101687.06;5077335;28;1109;-41
2023/10/09 04:27:08;;;;;;;;;;;;;;;25.48;23.36;101696.47;5077652;28;1103;-40
2023/10/09 04:29:39;;;;;;;;;;;;;;;25.63;23.75;101699.56;5077159;28;1150;-41
2023/10/09 04:32:08;;;;;;;;;;;;;;;25.64;23.93;101701.25;5077741;28;1973;-42
2023/10/09 04:34:48;;;;;;;;;;;;;;;25.75;24.63;101702.06;5077185;28;1143;-43
2023/10/09 04:39:46;;;;;;;;;;;;;;;25.89;25.94;101706.91;5077034;28;1170;-43
2023/10/09 04:42:20;;;;;;;;;;;;;;;25.86;26.26;101709.09;5077134;28;1049;-44
2023/10/09 04:47:38;;;;;;;;;;;;;;;26.06;26.31;101717.88;5076465;28;2345;-40
2023/10/09 04:58:24;;;;;;;;;;;;;;;26.06;27.05;101708.97;5077179;28;1127;-42
2023/10/09 05:02:56;;;;;;;;;;;;;;;26.19;27.69;101722.94;5076689;28;1010;-43
2023/10/09 05:11:15;;;;;;;;;;;;;;;26.19;28.32;101735.56;5067646;28;1906;-40
2023/10/09 05:16:05;;;;;;;;;;;;;;;26.00;27.41;101745.47;5077405;28;1209;-42
2023/10/09 05:18:36;;;;;;;;;;;;;;;26.24;26.81;101744.03;5070873;28;2334;-42
2023/10/09 05:24:09;;;;;;;;;;;;;;;26.35;27.75;101745.69;5076107;28;1043;-41
2023/10/09 05:26:50;;;;;;;;;;;;;;;26.41;28.83;101750.47;5069022;28;1378;-40
2023/10/09 05:29:47;;;;;;;;;;;;;;;26.53;28.41;101753.78;5076213;28;1003;-39
2023/10/09 05:37:25;;;;;;;;;;;;;;;26.94;29.43;101774.03;5070778;28;952;-38
2023/10/09 05:47:56;;;;;;;;;;;;;;;27.22;29.82;101792.84;5076185;28;2570;-38
2023/10/09 06:08:26;;;;;;;;;;;;;;;26.00;22.12;101823.66;5072920;28;935;-42
2023/10/09 06:11:05;;;;;;;;;;;;;;;26.18;21.79;101831.78;5076551;28;1987;-31
2023/10/09 06:13:37;;;;;;;;;;;;;;;26.27;22.04;101828.19;5076049;28;1074;-35
2023/10/09 06:16:19;;;;;;;;;;;;;;;26.15;20.79;101834.78;5076037;28;1165;-32
2023/10/09 06:18:53;;;;;;;;;;;;;;;26.01;20.90;101830.72;5075497;28;1002;-33
2023/10/09 06:24:17;;;;;;;;;;;;;;;25.87;21.41;101835.63;5075711;28;876;-32
2023/10/09 06:27:24;;;;;;;;;;;;;;;26.43;20.61;101842.03;5077823;28;1520;-32
2023/10/09 06:29:50;;;;;;;;;;;;;;;26.81;21.79;101841.94;5055769;28;1213;-30
2023/10/09 06:34:46;;;;;;;;;;;;;;;27.10;24.21;101839.00;5080304;28;1066;-36
2023/10/09 06:37:19;;;;;;;;;;;;;;;27.09;25.36;101840.00;5092255;28;1288;-34
2023/10/09 06:40:10;;;;;;;;;;;;;;;27.20;25.83;101841.63;5096008;28;1303;-34
2023/10/09 06:47:41;;;;;;;;;;;;;;;27.24;26.63;101852.97;5078113;28;1375;-32
2023/10/09 06:55:48;;;;;;;;;;;;;;;27.41;26.90;101851.19;5032846;28;1320;-32
2023/10/09 06:58:23;;;;;;;;;;;;;;;27.60;26.88;101860.97;5081672;28;1406;-33
2023/10/09 07:01:00;;;;;;;;;;;;;;;27.54;26.92;101849.94;5088002;28;1192;-32
2023/10/09 07:03:36;;;;;;;;;;;;;;;27.66;26.73;101851.34;5077494;28;1030;-32
2023/10/09 07:06:09;;;;;;;;;;;;;;;27.51;27.09;101862.75;5073319;28;1119;-34
2023/10/09 07:08:38;;;;;;;;;;;;;;;27.54;27.24;101845.41;5075614;28;1026;-36
2023/10/09 07:11:57;;;;;;;;;;;;;;;27.56;27.59;101854.16;5073859;28;1909;-33
2023/10/09 07:17:04;;;;;;;;;;;;;;;27.78;27.87;101840.31;5075692;28;1154;-31
2023/10/09 07:24:49;;;;;;;;;;;;;;;27.80;27.96;101849.09;5078820;28;843;-31
2023/10/09 07:27:43;;;;;;;;;;;;;;;27.67;28.68;101847.66;5079374;28;1081;-32
2023/10/09 07:32:52;;;;;;;;;;;;;;;28.05;28.94;101841.09;5079401;28;1906;-36
2023/10/09 07:35:46;;;;;;;;;;;;;;;28.11;28.35;101841.28;5078897;28;1117;-30
2023/10/09 07:38:03;;;;;;;;;;;;;;;27.94;28.74;101834.13;5078777;28;1400;-33
2023/10/09 07:40:31;;;;;;;;;;;;;;;27.98;28.67;101830.09;5079204;28;1109;-30
2023/10/09 07:43:05;;;;;;;;;;;;;;;27.99;28.98;101837.22;5078908;28;1233;-31
2023/10/09 07:48:05;;;;;;;;;;;;;;;28.06;28.53;101840.94;5079085;28;901;-34
2023/10/09 07:50:48;;;;;;;;;;;;;;;28.12;27.35;101831.34;5078614;28;1082;-33
2023/10/09 07:53:26;;;;;;;;;;;;;;;28.18;28.37;101829.81;5078125;28;1081;-33
2023/10/09 07:56:06;;;;;;;;;;;;;;;28.09;27.83;101826.25;5082693;28;1131;-35
2023/10/09 07:58:33;;;;;;;;;;;;;;;28.14;28.79;101836.59;5085450;28;1292;-34
2023/10/09 08:01:08;;;;;;;;;;;;;;;27.98;26.04;101803.91;5073175;28;1143;-36
2023/10/09 08:03:36;;;;;;;;;;;;;;;27.99;26.22;101827.22;5078400;28;1039;-30
2023/10/09 08:16:46;;;;;;;;;;;;;;;27.77;23.43;101809.72;5078584;28;1139;-31
2023/10/09 08:19:32;;;;;;;;;;;;;;;27.91;24.52;101818.25;5078148;28;1093;-34
2023/10/09 08:24:43;;;;;;;;;;;;;;;27.93;26.06;101775.63;5077631;28;887;-32
2023/10/09 08:30:12;;;;;;;;;;;;;;;28.38;25.77;101805.22;5076508;28;2102;-33
2023/10/09 08:32:38;;;;;;;;;;;;;;;28.16;23.34;101816.44;5076814;28;2309;-30
2023/10/09 08:35:29;;;;;;;;;;;;;;;28.00;26.10;101809.13;5078378;28;1847;-33
2023/10/09 08:38:07;;;;;;;;;;;;;;;27.80;26.76;101809.41;5090150;28;2070;-29
2023/10/09 08:40:43;;;;;;;;;;;;;;;27.81;26.68;101816.50;5082212;28;2135;-32
2023/10/09 08:43:16;;;;;;;;;;;;;;;27.93;25.84;101810.78;5079047;28;2290;-29
2023/10/09 08:45:48;;;;;;;;;;;;;;;27.64;26.46;101810.16;5091784;28;2068;-34
2023/10/09 08:48:26;;;;;;;;;;;;;;;27.73;26.36;101808.34;5087569;28;1034;-30
2023/10/09 08:50:54;;;;;;;;;;;;;;;27.75;24.20;101798.22;5094744;28;1911;-28
2023/10/09 08:53:20;;;;;;;;;;;;;;;27.75;23.55;101799.06;5096804;28;1002;-32
2023/10/09 08:55:46;;;;;;;;;;;;;;;27.63;24.76;101800.31;5084120;28;1150;-31
2023/10/09 08:58:24;;;;;;;;;;;;;;;27.71;26.70;101803.09;5085987;28;1164;-31
2023/10/09 09:00:50;;;;;;;;;;;;;;;27.74;26.28;101797.38;5089009;28;1206;-30
2023/10/09 09:03:16;;;;;;;;;;;;;;;27.62;25.33;101798.63;5096619;28;1029;-31
2023/10/09 09:05:45;;;;;;;;;;;;;;;27.72;22.11;101791.28;5096438;28;1147;-30
2023/10/09 09:08:29;;;;;;;;;;;;;;;27.70;22.13;101796.00;5096170;28;1101;-30
2023/10/09 09:11:05;;;;;;;;;;;;;;;27.46;24.43;101766.97;5096669;28;1997;-31
2023/10/09 09:13:31;;;;;;;;;;;;;;;27.78;23.86;101794.38;5082860;28;1018;-33
2023/10/09 09:15:59;;;;;;;;;;;;;;;27.73;22.42;101792.13;5089679;28;2416;-31
2023/10/09 09:18:31;;;;;;;;;;;;;;;27.65;21.97;101784.81;5092335;28;971;-30
2023/10/09 09:20:57;;;;;;;;;;;;;;;27.75;20.09;101776.59;5088103;28;1066;-32
2023/10/09 09:23:23;;;;;;;;;;;;;;;27.55;17.81;101770.56;5096118;28;1049;-29
2023/10/09 09:25:58;;;;;;;;;;;;;;;27.37;17.76;101766.06;5089335;28;895;-30
2023/10/09 09:28:26;;;;;;;;;;;;;;;27.18;17.35;101759.88;5089668;28;1012;-33
2023/10/09 09:30:53;;;;;;;;;;;;;;;27.25;16.52;101760.09;5089466;28;1969;-31
2023/10/09 09:33:39;;;;;;;;;;;;;;;27.37;16.61;101753.44;5083985;28;1154;-30
2023/10/09 09:36:05;;;;;;;;;;;;;;;27.63;16.76;101754.38;5063833;28;1083;-32
2023/10/09 09:38:50;;;;;;;;;;;;;;;27.41;17.29;101764.72;5076309;28;1162;-31
2023/10/09 09:41:23;;;;;;;;;;;;;;;27.43;16.54;101753.75;5095847;28;1130;-31
2023/10/09 09:44:01;;;;;;;;;;;;;;;27.33;16.09;101745.78;5070991;28;2429;-33
2023/10/09 09:46:33;;;;;;;;;;;;;;;27.44;16.26;101742.81;5041819;28;1139;-30
2023/10/09 09:49:02;;;;;;;;;;;;;;;27.26;16.03;101732.91;5041915;28;1360;-31
2023/10/09 09:51:31;;;;;;;;;;;;;;;27.18;15.67;101727.47;5070910;28;1917;-31
2023/10/09 09:53:57;;;;;;;;;;;;;;;27.33;15.91;101722.31;5064163;28;1484;-34
2023/10/09 09:56:26;;;;;;;;;;;;;;;27.30;15.76;101719.94;5050797;28;1098;-29
2023/10/09 09:58:56;;;;;;;;;;;;;;;27.47;15.91;101720.03;5056873;28;1415;-30
2023/10/09 10:01:29;;;;;;;;;;;;;;;27.06;15.57;101718.78;5058072;28;1248;-30
2023/10/09 10:03:57;;;;;;;;;;;;;;;27.24;15.71;101707.09;5044792;28;1355;-33
2023/10/09 10:06:26;;;;;;;;;;;;;;;27.28;16.63;101703.03;5069847;28;1497;-31
2023/10/09 10:08:52;;;;;;;;;;;;;;;27.58;15.99;101694.56;5055169;28;1434;-32
2023/10/09 10:11:40;;;;;;;;;;;;;;;27.48;17.79;101700.09;5075023;28;1981;-29
2023/10/09 10:14:11;;;;;;;;;;;;;;;27.45;17.19;101698.56;5070109;28;1925;-30
2023/10/09 10:16:55;;;;;;;;;;;;;;;27.46;17.59;101669.69;5045360;28;1292;-28
2023/10/09 10:21:49;;;;;;;;;;;;;;;27.38;16.12;101690.25;5048887;28;1209;-35
2023/10/09 10:27:26;;;;;;;;;;;;;;;27.48;17.45;101683.88;5070811;28;1331;-31
2023/10/09 10:30:13;;;;;;;;;;;;;;;27.59;17.28;101672.75;5044869;28;1110;-29
2023/10/09 10:32:51;;;;;;;;;;;;;;;27.35;15.91;101668.97;5038056;28;1981;-28
2023/10/09 10:35:20;;;;;;;;;;;;;;;27.50;16.06;101665.66;5046864;28;1168;-31
2023/10/09 10:37:54;;;;;;;;;;;;;;;27.43;15.67;101651.09;5064302;28;1276;-34
2023/10/09 10:40:38;;;;;;;;;;;;;;;27.42;17.19;101652.09;5066497;28;1370;-30
2023/10/09 10:43:13;;;;;;;;;;;;;;;27.31;15.99;101621.66;5064458;28;1074;-29
2023/10/09 10:45:44;;;;;;;;;;;;;;;27.13;15.89;101654.19;5069481;28;1230;-32
2023/10/09 10:48:22;;;;;;;;;;;;;;;26.81;15.97;101648.41;5075828;28;1069;-30
2023/10/09 10:50:57;;;;;;;;;;;;;;;26.94;15.74;101653.41;5058222;28;1174;-31
2023/10/09 10:53:27;;;;;;;;;;;;;;;27.17;15.71;101644.75;5041452;28;1137;-34
2023/10/09 10:56:17;;;;;;;;;;;;;;;27.37;16.42;101631.00;5069020;28;1079;-31
2023/10/09 11:01:53;;;;;;;;;;;;;;;27.75;16.46;101622.50;5037834;28;1129;-32
2023/10/09 11:04:38;;;;;;;;;;;;;;;27.80;17.62;101619.28;5052177;28;1129;-30
2023/10/09 11:07:09;;;;;;;;;;;;;;;27.65;17.73;101613.66;5079136;28;1232;-32
2023/10/09 11:10:10;;;;;;;;;;;;;;;27.61;17.19;101607.75;5079168;28;1179;-28
2023/10/09 11:12:44;;;;;;;;;;;;;;;27.38;19.51;101606.50;5077067;28;1906;-29
2023/10/09 11:18:07;;;;;;;;;;;;;;;27.39;18.97;101596.56;4994477;28;1164;-33
2023/10/09 11:20:36;;;;;;;;;;;;;;;27.50;17.58;101590.84;5065598;28;1496;-29
2023/10/09 11:25:37;;;;;;;;;;;;;;;26.96;16.32;101588.44;5071448;28;1197;-32
2023/10/09 11:28:15;;;;;;;;;;;;;;;26.86;17.46;101585.84;5071550;28;1082;-34
2023/10/09 11:30:45;;;;;;;;;;;;;;;27.11;16.12;101586.00;5072318;28;1535;-30
2023/10/09 11:33:14;;;;;;;;;;;;;;;26.98;18.67;101575.59;5061739;28;1965;-33
2023/10/09 11:35:42;;;;;;;;;;;;;;;27.18;18.16;101572.66;5077368;28;1027;-28
2023/10/09 11:38:21;;;;;;;;;;;;;;;27.35;17.50;101571.72;5063405;28;891;-28
2023/10/09 11:43:24;;;;;;;;;;;;;;;27.63;16.23;101563.31;5069073;28;1107;-30
2023/10/09 11:45:55;;;;;;;;;;;;;;;27.51;21.92;101551.97;5074180;28;1016;-31
2023/10/09 11:48:33;;;;;;;;;;;;;;;27.55;25.18;101547.09;5058465;28;1102;-29
2023/10/09 11:53:50;;;;;;;;;;;;;;;27.37;27.36;101536.44;5078610;28;1059;-29
2023/10/09 11:56:19;;;;;;;;;;;;;;;27.09;23.65;101517.78;5055972;28;1739;-27
2023/10/09 11:58:49;;;;;;;;;;;;;;;27.80;19.83;101522.81;5078517;28;1002;-31
2023/10/09 12:01:20;;;;;;;;;;;;;;;27.27;17.81;101523.06;5063129;28;1515;-31
2023/10/09 12:03:52;;;;;;;;;;;;;;;27.12;17.25;101518.31;5063953;28;1192;-31
2023/10/09 12:09:56;;;;;;;;;;;;;;;26.88;17.51;101502.81;5054778;28;929;-31
2023/10/09 12:12:25;;;;;;;;;;;;;;;26.26;16.87;101502.84;5065801;28;1910;-34
2023/10/09 12:14:52;;;;;;;;;;;;;;;27.00;17.24;101496.13;5052945;28;1495;-31
2023/10/09 12:17:18;;;;;;;;;;;;;;;27.48;18.71;101490.16;5058845;28;1228;-32
2023/10/09 12:19:44;;;;;;;;;;;;;;;27.75;20.61;101473.81;5058469;28;1532;-30
2023/10/09 12:22:16;;;;;;;;;;;;;;;28.04;19.77;101471.59;5064747;28;889;-34
2023/10/09 12:24:43;;;;;;;;;;;;;;;28.10;19.36;101470.91;5050749;28;1294;-34
2023/10/09 12:27:11;;;;;;;;;;;;;;;28.14;18.71;101466.84;5058452;28;1054;-33
2023/10/09 12:29:37;;;;;;;;;;;;;;;28.15;18.48;101471.22;5075930;28;1019;-29
2023/10/09 12:32:03;;;;;;;;;;;;;;;28.35;18.26;101473.56;5065606;28;1965;-30
2023/10/09 12:34:30;;;;;;;;;;;;;;;28.25;18.43;101471.03;5064501;28;1190;-29
2023/10/09 12:37:02;;;;;;;;;;;;;;;28.21;18.59;101472.41;5067202;28;1052;-29
2023/10/09 12:39:33;;;;;;;;;;;;;;;28.16;19.41;101463.97;5068482;28;1034;-30
2023/10/09 12:42:06;;;;;;;;;;;;;;;28.07;19.21;101461.28;5077245;28;1038;-31
2023/10/09 12:44:34;;;;;;;;;;;;;;;28.22;19.21;101455.16;5074536;28;1305;-30
2023/10/09 12:47:03;;;;;;;;;;;;;;;28.24;19.20;101459.34;5069491;28;1411;-35
2023/10/09 12:49:29;;;;;;;;;;;;;;;28.33;19.26;101456.66;5073863;28;1146;-29
2023/10/09 12:51:54;;;;;;;;;;;;;;;28.28;19.19;101456.34;5077522;28;1897;-34
2023/10/09 12:54:24;;;;;;;;;;;;;;;28.09;19.12;101453.81;5076107;28;1244;-31
2023/10/09 12:56:49;;;;;;;;;;;;;;;28.10;19.54;101443.84;5068621;28;1046;-29
2023/10/09 12:59:15;;;;;;;;;;;;;;;27.91;19.50;101407.25;5068967;28;1246;-32
2023/10/09 13:01:43;;;;;;;;;;;;;;;27.98;19.71;101437.97;5075614;28;1608;-31
2023/10/09 13:04:21;;;;;;;;;;;;;;;27.49;19.80;101437.81;5076188;28;1475;-29
2023/10/09 13:06:47;;;;;;;;;;;;;;;27.34;19.87;101437.63;5075448;28;1050;-31
2023/10/09 13:09:13;;;;;;;;;;;;;;;27.22;19.83;101431.75;5069653;28;1302;-29
2023/10/09 13:11:40;;;;;;;;;;;;;;;27.18;20.94;101440.31;5069383;28;1981;-30
2023/10/09 13:14:16;;;;;;;;;;;;;;;27.41;21.35;101435.09;5069370;28;1225;-31
2023/10/09 13:16:42;;;;;;;;;;;;;;;27.61;21.10;101418.56;5081457;28;1141;-28
2023/10/09 13:19:10;;;;;;;;;;;;;;;27.60;21.40;101419.56;5072377;28;2531;-32
2023/10/09 13:21:38;;;;;;;;;;;;;;;27.51;21.64;101408.75;5075298;28;979;-29
2023/10/09 13:24:04;;;;;;;;;;;;;;;27.64;21.55;101412.81;5076462;28;1062;-28
2023/10/09 13:26:30;;;;;;;;;;;;;;;27.62;21.27;101410.28;5076303;28;1178;-30
2023/10/09 13:28:56;;;;;;;;;;;;;;;27.60;21.29;101379.03;5082881;28;1337;-30
2023/10/09 13:31:25;;;;;;;;;;;;;;;27.71;21.19;101386.00;5084188;28;1894;-32
2023/10/09 13:33:54;;;;;;;;;;;;;;;27.70;21.06;101392.41;5094433;28;1236;-33
2023/10/09 13:36:26;;;;;;;;;;;;;;;27.60;21.50;101403.34;5076355;28;1085;-30
2023/10/09 13:38:53;;;;;;;;;;;;;;;27.72;21.37;101393.94;5083301;28;1277;-29
2023/10/09 13:41:18;;;;;;;;;;;;;;;27.66;21.68;101391.84;5073623;28;1225;-31
2023/10/09 13:43:44;;;;;;;;;;;;;;;27.66;21.71;101391.03;5066689;28;2184;-32
2023/10/09 13:46:09;;;;;;;;;;;;;;;27.82;21.38;101369.41;5077602;28;1227;-30
2023/10/09 13:48:38;;;;;;;;;;;;;;;27.98;21.17;101378.47;5076977;28;1134;-30
2023/10/09 13:51:07;;;;;;;;;;;;;;;28.08;20.67;101370.16;5076173;28;1898;-30
2023/10/09 13:53:35;;;;;;;;;;;;;;;28.27;20.54;101376.19;5076321;28;1152;-29
2023/10/09 13:56:01;;;;;;;;;;;;;;;28.28;21.87;101361.66;5076290;28;1034;-30
2023/10/09 13:58:27;;;;;;;;;;;;;;;28.25;21.64;101362.81;5076941;28;1194;-29
2023/10/09 14:00:53;;;;;;;;;;;;;;;28.22;22.09;101363.19;5063556;28;1248;-30
2023/10/09 14:03:23;;;;;;;;;;;;;;;28.34;21.77;101356.38;5075743;28;903;-28
2023/10/09 14:05:56;;;;;;;;;;;;;;;28.18;22.00;101357.28;5063287;28;1078;-31
2023/10/09 14:08:22;;;;;;;;;;;;;;;27.99;21.76;101361.25;5073695;28;2255;-29
2023/10/09 14:10:48;;;;;;;;;;;;;;;28.20;21.92;101360.66;5076094;28;2222;-29
2023/10/09 14:13:17;;;;;;;;;;;;;;;27.95;22.69;101355.34;5075353;28;2090;-29
2023/10/09 14:15:45;;;;;;;;;;;;;;;28.16;23.04;101361.19;5082030;28;1966;-28
2023/10/09 14:18:11;;;;;;;;;;;;;;;28.06;23.83;101356.81;5080039;28;2033;-29
2023/10/09 14:20:37;;;;;;;;;;;;;;;28.06;24.40;101350.56;5088412;28;2316;-29
2023/10/09 14:23:12;;;;;;;;;;;;;;;27.74;23.97;101313.47;5079435;28;2028;-29
2023/10/09 14:25:39;;;;;;;;;;;;;;;27.68;24.40;101349.31;5074884;28;1007;-30
2023/10/09 14:28:08;;;;;;;;;;;;;;;27.79;24.23;101353.53;5079523;28;883;-30
2023/10/09 14:30:41;;;;;;;;;;;;;;;27.73;24.74;101340.69;5079717;28;1022;-35
2023/10/09 14:33:13;;;;;;;;;;;;;;;27.90;24.28;101340.63;5079566;28;1910;-33
2023/10/09 14:35:39;;;;;;;;;;;;;;;27.71;24.78;101340.88;5079516;28;1074;-28
2023/10/09 14:38:11;;;;;;;;;;;;;;;27.87;24.64;101342.69;5079130;28;1134;-29
2023/10/09 14:40:41;;;;;;;;;;;;;;;27.79;25.00;101336.47;5079928;28;1073;-30
2023/10/09 14:43:08;;;;;;;;;;;;;;;27.19;25.47;101334.84;5079592;28;999;-29
2023/10/09 14:45:36;;;;;;;;;;;;;;;27.10;25.33;101331.28;5079358;28;1122;-33
2023/10/09 14:48:02;;;;;;;;;;;;;;;27.42;25.26;101328.75;5079605;28;1038;-29
2023/10/09 14:50:27;;;;;;;;;;;;;;;27.70;24.81;101328.38;5079260;28;1014;-30
2023/10/09 14:52:53;;;;;;;;;;;;;;;27.75;25.24;101325.16;5079194;28;1981;-28
2023/10/09 14:55:26;;;;;;;;;;;;;;;27.70;25.32;101314.84;5079059;28;2668;-29
2023/10/09 14:57:55;;;;;;;;;;;;;;;27.68;25.54;101316.88;5079400;28;1030;-31
2023/10/09 15:00:23;;;;;;;;;;;;;;;27.65;25.53;101321.75;5078461;28;1047;-28
2023/10/09 15:02:50;;;;;;;;;;;;;;;27.81;25.41;101329.03;5078990;28;1166;-30
2023/10/09 15:05:16;;;;;;;;;;;;;;;27.10;26.36;101328.59;5079268;28;1193;-28
2023/10/09 15:07:41;;;;;;;;;;;;;;;26.96;26.31;101330.06;5079350;28;1095;-32
2023/10/09 15:10:09;;;;;;;;;;;;;;;27.35;25.86;101331.28;5078849;28;1058;-32
2023/10/09 15:12:39;;;;;;;;;;;;;;;27.59;25.57;101337.63;5079035;28;1918;-29
2023/10/09 15:15:13;;;;;;;;;;;;;;;27.70;25.72;101336.47;5078575;28;1086;-30
2023/10/09 15:17:45;;;;;;;;;;;;;;;27.62;26.15;101340.03;5079084;28;1050;-29
2023/10/09 15:20:14;;;;;;;;;;;;;;;27.63;25.93;101333.59;5078643;28;1053;-32
2023/10/09 15:22:40;;;;;;;;;;;;;;;27.40;26.56;101333.47;5078798;28;1070;-30
2023/10/09 15:25:06;;;;;;;;;;;;;;;27.66;26.08;101318.06;5089992;28;1879;-29
2023/10/09 15:27:32;;;;;;;;;;;;;;;27.66;26.25;101324.28;5078798;28;1015;-31
2023/10/09 15:29:57;;;;;;;;;;;;;;;27.63;26.51;101322.78;5078153;28;1171;-31